< < Back
Terminal Aerodrome Forecast


Current Version              Previous Versions:   1  2  3  4  5  6  7  8  9  

Terminal Aerodrome Forecast

053
FTUS42 KILM 311243 AAA
TAFILM
TAF AMD
KILM 311243Z 3113/0112 05008KT P6SM VCSH SCT025 BKN070
      TEMPO 3113/3114 4SM SHRA BKN025
     FM311400 05007KT P6SM VCSH SCT020 BKN070
      TEMPO 3114/3116 BKN025
     FM311600 03007KT 4SM SHRA VCTS BKN025CB BKN070
     FM010000 03003KT P6SM VCSH SCT050 BKN100
     FM010800 01003KT 4SM BR BKN005=

Latest METAR

283
SAUS70 KWBC 010100 RRK
MTRILM
METAR KILM 010053Z AUTO 05011KT 10SM BKN015 BKN022 23/22 A2989 RMK AO2
SLP120 T02280217


USA.gov is the U.S. government's official web portal to all federal, state and local government web resources and services.